sensor_id;sensor_type;location;lat;lon;timestamp;pressure;altitude;pressure_sealevel;temperature;humidity
72116;BME280;59991;52.140;5.428;2023-04-28T00:00:07;101434.38;;;8.88;56.09
72116;BME280;59991;52.140;5.428;2023-04-28T00:00:39;101430.84;;;8.87;56.54
72116;BME280;59991;52.140;5.428;2023-04-28T00:01:10;101440.94;;;8.87;56.24
72116;BME280;59991;52.140;5.428;2023-04-28T00:01:44;101433.94;;;8.86;56.36
72116;BME280;59991;52.140;5.428;2023-04-28T00:02:16;101445.59;;;8.86;55.96
72116;BME280;59991;52.140;5.428;2023-04-28T00:02:48;101442.88;;;8.86;55.95
72116;BME280;59991;52.140;5.428;2023-04-28T00:03:20;101441.28;;;8.85;56.69
72116;BME280;59991;52.140;5.428;2023-04-28T00:03:52;101438.94;;;8.84;55.81
72116;BME280;59991;52.140;5.428;2023-04-28T00:04:24;101446.66;;;8.82;55.69
72116;BME280;59991;52.140;5.428;2023-04-28T00:04:56;101445.88;;;8.81;56.05
72116;BME280;59991;52.140;5.428;2023-04-28T00:05:28;101445.44;;;8.79;55.52
72116;BME280;59991;52.140;5.428;2023-04-28T00:06:00;101450.09;;;8.79;56.09
72116;BME280;59991;52.140;5.428;2023-04-28T00:06:31;101448.50;;;8.78;56.04
72116;BME280;59991;52.140;5.428;2023-04-28T00:07:03;101445.00;;;8.77;56.40
72116;BME280;59991;52.140;5.428;2023-04-28T00:07:34;101451.22;;;8.78;56.88
72116;BME280;59991;52.140;5.428;2023-04-28T00:08:06;101447.72;;;8.77;56.31
72116;BME280;59991;52.140;5.428;2023-04-28T00:08:38;101446.91;;;8.77;56.25
72116;BME280;59991;52.140;5.428;2023-04-28T00:09:10;101448.06;;;8.76;56.04
72116;BME280;59991;52.140;5.428;2023-04-28T00:09:42;101448.84;;;8.76;56.29
72116;BME280;59991;52.140;5.428;2023-04-28T00:10:13;101452.69;;;8.75;56.20
72116;BME280;59991;52.140;5.428;2023-04-28T00:10:45;101447.25;;;8.75;55.84
72116;BME280;59991;52.140;5.428;2023-04-28T00:11:17;101447.25;;;8.75;56.07
72116;BME280;59991;52.140;5.428;2023-04-28T00:11:48;101446.47;;;8.75;55.98
72116;BME280;59991;52.140;5.428;2023-04-28T00:12:20;101441.03;;;8.75;56.21
72116;BME280;59991;52.140;5.428;2023-04-28T00:12:51;101440.25;;;8.74;56.05
72116;BME280;59991;52.140;5.428;2023-04-28T00:13:23;101438.31;;;8.75;56.19
72116;BME280;59991;52.140;5.428;2023-04-28T00:13:54;101437.53;;;8.74;56.61
72116;BME280;59991;52.140;5.428;2023-04-28T00:14:26;101432.44;;;8.73;56.06
72116;BME280;59991;52.140;5.428;2023-04-28T00:14:58;101432.78;;;8.71;56.17
72116;BME280;59991;52.140;5.428;2023-04-28T00:15:29;101428.47;;;8.70;55.92
72116;BME280;59991;52.140;5.428;2023-04-28T00:16:01;101427.69;;;8.70;56.22
72116;BME280;59991;52.140;5.428;2023-04-28T00:16:32;101425.75;;;8.70;56.19
72116;BME280;59991;52.140;5.428;2023-04-28T00:17:04;101426.56;;;8.71;56.25
72116;BME280;59991;52.140;5.428;2023-04-28T00:17:36;101421.13;;;8.71;56.39
72116;BME280;59991;52.140;5.428;2023-04-28T00:18:08;101421.91;;;8.71;56.53
72116;BME280;59991;52.140;5.428;2023-04-28T00:18:39;101420.31;;;8.70;56.23
72116;BME280;59991;52.140;5.428;2023-04-28T00:19:11;101423.38;;;8.69;56.54
72116;BME280;59991;52.140;5.428;2023-04-28T00:19:42;101423.75;;;8.67;56.07
72116;BME280;59991;52.140;5.428;2023-04-28T00:20:15;101416.72;;;8.66;56.22
72116;BME280;59991;52.140;5.428;2023-04-28T00:20:47;101422.16;;;8.66;56.51
72116;BME280;59991;52.140;5.428;2023-04-28T00:21:18;101426.03;;;8.65;56.33
72116;BME280;59991;52.140;5.428;2023-04-28T00:21:50;101424.47;;;8.64;56.14
72116;BME280;59991;52.140;5.428;2023-04-28T00:22:22;101421.75;;;8.64;56.48
72116;BME280;59991;52.140;5.428;2023-04-28T00:22:53;101420.97;;;8.63;56.26
72116;BME280;59991;52.140;5.428;2023-04-28T00:23:25;101416.31;;;8.64;56.87
72116;BME280;59991;52.140;5.428;2023-04-28T00:24:00;101411.66;;;8.64;56.94
72116;BME280;59991;52.140;5.428;2023-04-28T00:24:31;101409.72;;;8.65;56.47
72116;BME280;59991;52.140;5.428;2023-04-28T00:25:05;101407.81;;;8.65;56.52
72116;BME280;59991;52.140;5.428;2023-04-28T00:25:36;101406.63;;;8.66;56.96
72116;BME280;59991;52.140;5.428;2023-04-28T00:26:08;101403.91;;;8.66;56.43
72116;BME280;59991;52.140;5.428;2023-04-28T00:26:39;101403.13;;;8.66;56.75
72116;BME280;59991;52.140;5.428;2023-04-28T00:27:11;101406.22;;;8.64;56.51
72116;BME280;59991;52.140;5.428;2023-04-28T00:27:42;101403.84;;;8.63;56.46
72116;BME280;59991;52.140;5.428;2023-04-28T00:28:14;101403.06;;;8.62;56.51
72116;BME280;59991;52.140;5.428;2023-04-28T00:29:05;101390.59;;;8.61;56.46
72116;BME280;59991;52.140;5.428;2023-04-28T00:29:37;101401.84;;;8.60;56.77
72116;BME280;59991;52.140;5.428;2023-04-28T00:30:09;101399.91;;;8.60;57.39
72116;BME280;59991;52.140;5.428;2023-04-28T00:30:40;101400.69;;;8.61;56.79
72116;BME280;59991;52.140;5.428;2023-04-28T00:31:13;101405.00;;;8.62;57.18
72116;BME280;59991;52.140;5.428;2023-04-28T00:31:46;101396.03;;;8.61;57.03
72116;BME280;59991;52.140;5.428;2023-04-28T00:32:17;101397.97;;;8.61;56.72
72116;BME280;59991;52.140;5.428;2023-04-28T00:32:49;101399.91;;;8.60;56.81
72116;BME280;59991;52.140;5.428;2023-04-28T00:33:20;101394.47;;;8.60;56.63
72116;BME280;59991;52.140;5.428;2023-04-28T00:33:52;101385.97;;;8.62;56.89
72116;BME280;59991;52.140;5.428;2023-04-28T00:34:24;101386.75;;;8.62;56.92
72116;BME280;59991;52.140;5.428;2023-04-28T00:34:56;101389.91;;;8.64;56.92
72116;BME280;59991;52.140;5.428;2023-04-28T00:35:27;101379.03;;;8.64;56.39
72116;BME280;59991;52.140;5.428;2023-04-28T00:35:59;101385.25;;;8.65;56.98
72116;BME280;59991;52.140;5.428;2023-04-28T00:36:32;101378.25;;;8.64;56.90
72116;BME280;59991;52.140;5.428;2023-04-28T00:37:04;101380.97;;;8.64;56.79
72116;BME280;59991;52.140;5.428;2023-04-28T00:37:36;101386.75;;;8.62;57.17
72116;BME280;59991;52.140;5.428;2023-04-28T00:38:08;101372.38;;;8.62;56.90
72116;BME280;59991;52.140;5.428;2023-04-28T00:38:40;101380.53;;;8.62;57.26
72116;BME280;59991;52.140;5.428;2023-04-28T00:39:11;101376.22;;;8.61;57.31
72116;BME280;59991;52.140;5.428;2023-04-28T00:39:43;101374.28;;;8.61;57.05
72116;BME280;59991;52.140;5.428;2023-04-28T00:40:17;101380.97;;;8.64;57.35
72116;BME280;59991;52.140;5.428;2023-04-28T00:40:48;101372.81;;;8.64;57.92
72116;BME280;59991;52.140;5.428;2023-04-28T00:41:20;101377.09;;;8.65;57.74
72116;BME280;59991;52.140;5.428;2023-04-28T00:41:51;101374.41;;;8.65;57.46
72116;BME280;59991;52.140;5.428;2023-04-28T00:42:23;101381.38;;;8.66;57.66
72116;BME280;59991;52.140;5.428;2023-04-28T00:42:54;101378.66;;;8.66;57.96
72116;BME280;59991;52.140;5.428;2023-04-28T00:43:26;101379.81;;;8.65;57.41
72116;BME280;59991;52.140;5.428;2023-04-28T00:43:58;101377.09;;;8.65;56.99
72116;BME280;59991;52.140;5.428;2023-04-28T00:44:29;101375.53;;;8.64;56.97
72116;BME280;59991;52.140;5.428;2023-04-28T00:45:02;101379.03;;;8.64;56.99
72116;BME280;59991;52.140;5.428;2023-04-28T00:45:36;101382.09;;;8.63;57.38
72116;BME280;59991;52.140;5.428;2023-04-28T00:46:11;101384.81;;;8.63;57.17
72116;BME280;59991;52.140;5.428;2023-04-28T00:46:44;101379.72;;;8.61;57.02
72116;BME280;59991;52.140;5.428;2023-04-28T00:47:16;101378.94;;;8.61;56.84
72116;BME280;59991;52.140;5.428;2023-04-28T00:47:49;101389.03;;;8.60;57.59
72116;BME280;59991;52.140;5.428;2023-04-28T00:48:21;101379.28;;;8.59;57.32
72116;BME280;59991;52.140;5.428;2023-04-28T00:48:54;101380.88;;;8.60;57.20
72116;BME280;59991;52.140;5.428;2023-04-28T00:49:26;101382.81;;;8.60;57.22
72116;BME280;59991;52.140;5.428;2023-04-28T00:49:59;101377.00;;;8.61;57.57
72116;BME280;59991;52.140;5.428;2023-04-28T00:50:32;101391.41;;;8.62;57.37
72116;BME280;59991;52.140;5.428;2023-04-28T00:51:03;101380.53;;;8.62;57.29
72116;BME280;59991;52.140;5.428;2023-04-28T00:51:36;101383.25;;;8.62;57.78
72116;BME280;59991;52.140;5.428;2023-04-28T00:52:08;101382.09;;;8.63;57.47
72116;BME280;59991;52.140;5.428;2023-04-28T00:52:42;101378.59;;;8.62;57.90
72116;BME280;59991;52.140;5.428;2023-04-28T00:53:14;101380.53;;;8.62;57.37
72116;BME280;59991;52.140;5.428;2023-04-28T00:53:47;101382.09;;;8.63;57.04
72116;BME280;59991;52.140;5.428;2023-04-28T00:54:20;101378.25;;;8.64;57.34
72116;BME280;59991;52.140;5.428;2023-04-28T00:54:52;101376.31;;;8.64;57.85
72116;BME280;59991;52.140;5.428;2023-04-28T00:55:26;101379.81;;;8.65;57.24
72116;BME280;59991;52.140;5.428;2023-04-28T00:56:00;101378.25;;;8.64;57.35
72116;BME280;59991;52.140;5.428;2023-04-28T00:56:32;101378.59;;;8.62;57.40
72116;BME280;59991;52.140;5.428;2023-04-28T00:57:04;101373.50;;;8.61;56.99
72116;BME280;59991;52.140;5.428;2023-04-28T00:57:35;101375.44;;;8.60;57.49
72116;BME280;59991;52.140;5.428;2023-04-28T00:58:07;101373.41;;;8.57;57.63
72116;BME280;59991;52.140;5.428;2023-04-28T00:58:40;101369.13;;;8.56;57.77
72116;BME280;59991;52.140;5.428;2023-04-28T00:59:12;101372.63;;;8.57;57.75
72116;BME280;59991;52.140;5.428;2023-04-28T00:59:44;101374.56;;;8.56;57.36
72116;BME280;59991;52.140;5.428;2023-04-28T01:00:16;101362.88;;;8.56;57.17
72116;BME280;59991;52.140;5.428;2023-04-28T01:00:48;101368.31;;;8.56;57.39
72116;BME280;59991;52.140;5.428;2023-04-28T01:01:19;101370.25;;;8.55;57.96
72116;BME280;59991;52.140;5.428;2023-04-28T01:01:51;101373.75;;;8.56;57.77
72116;BME280;59991;52.140;5.428;2023-04-28T01:02:23;101367.19;;;8.57;58.27
72116;BME280;59991;52.140;5.428;2023-04-28T01:02:56;101369.91;;;8.57;58.03
72116;BME280;59991;52.140;5.428;2023-04-28T01:03:28;101365.59;;;8.56;57.29
72116;BME280;59991;52.140;5.428;2023-04-28T01:03:59;101363.25;;;8.54;57.78
72116;BME280;59991;52.140;5.428;2023-04-28T01:04:32;101363.59;;;8.53;58.02
72116;BME280;59991;52.140;5.428;2023-04-28T01:05:04;101367.09;;;8.53;57.71
72116;BME280;59991;52.140;5.428;2023-04-28T01:05:36;101361.66;;;8.53;57.87
72116;BME280;59991;52.140;5.428;2023-04-28T01:06:08;101363.59;;;8.53;58.45
72116;BME280;59991;52.140;5.428;2023-04-28T01:06:40;101360.06;;;8.52;58.27
72116;BME280;59991;52.140;5.428;2023-04-28T01:07:13;101364.72;;;8.52;58.03
72116;BME280;59991;52.140;5.428;2023-04-28T01:07:44;101360.06;;;8.52;58.10
72116;BME280;59991;52.140;5.428;2023-04-28T01:08:15;101359.28;;;8.52;58.19
72116;BME280;59991;52.140;5.428;2023-04-28T01:08:48;101354.63;;;8.52;58.14
72116;BME280;59991;52.140;5.428;2023-04-28T01:09:21;101344.91;;;8.51;57.93
72116;BME280;59991;52.140;5.428;2023-04-28T01:09:53;101355.00;;;8.51;58.23
72116;BME280;59991;52.140;5.428;2023-04-28T01:10:25;101356.91;;;8.50;57.91
72116;BME280;59991;52.140;5.428;2023-04-28T01:10:56;101357.72;;;8.51;57.95
72116;BME280;59991;52.140;5.428;2023-04-28T01:11:28;101357.72;;;8.51;58.09
72116;BME280;59991;52.140;5.428;2023-04-28T01:11:59;101352.28;;;8.51;57.98
72116;BME280;59991;52.140;5.428;2023-04-28T01:12:32;101355.78;;;8.51;57.73
72116;BME280;59991;52.140;5.428;2023-04-28T01:13:03;101348.41;;;8.52;57.40
72116;BME280;59991;52.140;5.428;2023-04-28T01:13:34;101355.78;;;8.51;57.82
72116;BME280;59991;52.140;5.428;2023-04-28T01:14:06;101353.06;;;8.51;57.69
72116;BME280;59991;52.140;5.428;2023-04-28T01:14:37;101353.84;;;8.52;58.25
72116;BME280;59991;52.140;5.428;2023-04-28T01:15:15;101355.00;;;8.51;57.77
72116;BME280;59991;52.140;5.428;2023-04-28T01:15:46;101356.13;;;8.50;57.85
72116;BME280;59991;52.140;5.428;2023-04-28T01:16:19;101353.41;;;8.50;58.20
72116;BME280;59991;52.140;5.428;2023-04-28T01:16:51;101359.97;;;8.49;58.10
72116;BME280;59991;52.140;5.428;2023-04-28T01:17:24;101353.75;;;8.48;58.56
72116;BME280;59991;52.140;5.428;2023-04-28T01:17:55;101359.97;;;8.49;58.29
72116;BME280;59991;52.140;5.428;2023-04-28T01:18:27;101359.97;;;8.49;58.68
72116;BME280;59991;52.140;5.428;2023-04-28T01:18:59;101360.78;;;8.49;58.80
72116;BME280;59991;52.140;5.428;2023-04-28T01:19:31;101357.72;;;8.51;58.64
72116;BME280;59991;52.140;5.428;2023-04-28T01:20:03;101352.28;;;8.51;59.43
72116;BME280;59991;52.140;5.428;2023-04-28T01:20:35;101355.00;;;8.51;59.02
72116;BME280;59991;52.140;5.428;2023-04-28T01:21:06;101357.72;;;8.51;59.42
72116;BME280;59991;52.140;5.428;2023-04-28T01:21:38;101360.41;;;8.51;59.28
72116;BME280;59991;52.140;5.428;2023-04-28T01:22:09;101352.28;;;8.51;59.50
72116;BME280;59991;52.140;5.428;2023-04-28T01:22:44;101351.13;;;8.52;59.58
72116;BME280;59991;52.140;5.428;2023-04-28T01:23:16;101354.28;;;8.54;59.20
72116;BME280;59991;52.140;5.428;2023-04-28T01:23:48;101351.56;;;8.54;59.58
72116;BME280;59991;52.140;5.428;2023-04-28T01:24:19;101350.44;;;8.55;59.41
72116;BME280;59991;52.140;5.428;2023-04-28T01:24:51;101350.78;;;8.53;59.27
72116;BME280;59991;52.140;5.428;2023-04-28T01:25:22;101344.56;;;8.53;59.12
72116;BME280;59991;52.140;5.428;2023-04-28T01:25:54;101348.41;;;8.52;59.52
72116;BME280;59991;52.140;5.428;2023-04-28T01:26:26;101350.00;;;8.53;59.75
72116;BME280;59991;52.140;5.428;2023-04-28T01:26:58;101348.41;;;8.52;59.78
72116;BME280;59991;52.140;5.428;2023-04-28T01:27:30;101344.91;;;8.51;59.84
72116;BME280;59991;52.140;5.428;2023-04-28T01:28:03;101348.75;;;8.50;59.58
72116;BME280;59991;52.140;5.428;2023-04-28T01:28:35;101350.34;;;8.51;60.02
72116;BME280;59991;52.140;5.428;2023-04-28T01:29:06;101347.97;;;8.50;59.27
72116;BME280;59991;52.140;5.428;2023-04-28T01:29:38;101345.25;;;8.50;59.17
72116;BME280;59991;52.140;5.428;2023-04-28T01:30:10;101350.69;;;8.50;59.13
72116;BME280;59991;52.140;5.428;2023-04-28T01:30:42;101341.41;;;8.51;59.49
72116;BME280;59991;52.140;5.428;2023-04-28T01:31:13;101348.41;;;8.52;59.00
72116;BME280;59991;52.140;5.428;2023-04-28T01:31:45;101342.97;;;8.52;59.25
72116;BME280;59991;52.140;5.428;2023-04-28T01:32:17;101341.84;;;8.53;59.41
72116;BME280;59991;52.140;5.428;2023-04-28T01:32:49;101341.84;;;8.53;59.54
72116;BME280;59991;52.140;5.428;2023-04-28T01:33:20;101345.00;;;8.55;60.08
72116;BME280;59991;52.140;5.428;2023-04-28T01:33:52;101335.25;;;8.54;59.48
72116;BME280;59991;52.140;5.428;2023-04-28T01:34:24;101343.41;;;8.54;59.30
72116;BME280;59991;52.140;5.428;2023-04-28T01:34:56;101333.69;;;8.53;59.58
72116;BME280;59991;52.140;5.428;2023-04-28T01:35:28;101345.34;;;8.53;59.79
72116;BME280;59991;52.140;5.428;2023-04-28T01:35:59;101346.13;;;8.54;59.76
72116;BME280;59991;52.140;5.428;2023-04-28T01:36:31;101343.75;;;8.52;59.06
72116;BME280;59991;52.140;5.428;2023-04-28T01:37:05;101338.34;;;8.52;58.99
72116;BME280;59991;52.140;5.428;2023-04-28T01:37:37;101344.13;;;8.51;58.95
72116;BME280;59991;52.140;5.428;2023-04-28T01:38:08;101341.41;;;8.51;58.79
72116;BME280;59991;52.140;5.428;2023-04-28T01:38:40;101331.66;;;8.50;58.79
72116;BME280;59991;52.140;5.428;2023-04-28T01:39:11;101340.97;;;8.49;59.72
72116;BME280;59991;52.140;5.428;2023-04-28T01:39:43;101338.25;;;8.49;60.05
72116;BME280;59991;52.140;5.428;2023-04-28T01:40:14;101337.44;;;8.48;59.83
72116;BME280;59991;52.140;5.428;2023-04-28T01:40:46;101337.09;;;8.50;59.93
72116;BME280;59991;52.140;5.428;2023-04-28T01:41:17;101334.38;;;8.50;59.92
72116;BME280;59991;52.140;5.428;2023-04-28T01:41:50;101331.31;;;8.51;59.42
72116;BME280;59991;52.140;5.428;2023-04-28T01:42:21;101332.44;;;8.50;59.07
72116;BME280;59991;52.140;5.428;2023-04-28T01:42:54;101331.31;;;8.51;58.97
72116;BME280;59991;52.140;5.428;2023-04-28T01:43:25;101331.31;;;8.51;59.24
72116;BME280;59991;52.140;5.428;2023-04-28T01:43:57;101324.66;;;8.49;59.21
72116;BME280;59991;52.140;5.428;2023-04-28T01:44:29;101326.16;;;8.46;59.43
72116;BME280;59991;52.140;5.428;2023-04-28T01:45:01;101325.72;;;8.44;59.11
72116;BME280;59991;52.140;5.428;2023-04-28T01:45:33;101323.34;;;8.43;59.21
72116;BME280;59991;52.140;5.428;2023-04-28T01:46:05;101320.19;;;8.41;59.41
72116;BME280;59991;52.140;5.428;2023-04-28T01:46:36;101318.97;;;8.38;59.30
72116;BME280;59991;52.140;5.428;2023-04-28T01:47:08;101315.44;;;8.38;59.32
72116;BME280;59991;52.140;5.428;2023-04-28T01:47:39;101320.09;;;8.37;59.50
72116;BME280;59991;52.140;5.428;2023-04-28T01:48:11;101315.81;;;8.36;58.99
72116;BME280;59991;52.140;5.428;2023-04-28T01:48:43;101312.28;;;8.36;59.63
72116;BME280;59991;52.140;5.428;2023-04-28T01:49:14;101320.78;;;8.34;59.65
72116;BME280;59991;52.140;5.428;2023-04-28T01:49:46;101317.28;;;8.34;59.85
72116;BME280;59991;52.140;5.428;2023-04-28T01:50:18;101319.53;;;8.31;59.89
72116;BME280;59991;52.140;5.428;2023-04-28T01:50:50;101314.44;;;8.30;59.90
72116;BME280;59991;52.140;5.428;2023-04-28T01:51:21;101313.66;;;8.29;59.95
72116;BME280;59991;52.140;5.428;2023-04-28T01:51:52;101310.16;;;8.29;59.93
72116;BME280;59991;52.140;5.428;2023-04-28T01:52:24;101308.22;;;8.29;59.86
72116;BME280;59991;52.140;5.428;2023-04-28T01:52:57;101308.56;;;8.28;60.07
72116;BME280;59991;52.140;5.428;2023-04-28T01:53:29;101315.59;;;8.29;60.02
72116;BME280;59991;52.140;5.428;2023-04-28T01:54:01;101301.19;;;8.28;59.66
72116;BME280;59991;52.140;5.428;2023-04-28T01:54:33;101305.84;;;8.28;60.16
72116;BME280;59991;52.140;5.428;2023-04-28T01:55:05;101310.16;;;8.29;60.25
72116;BME280;59991;52.140;5.428;2023-04-28T01:55:37;101310.16;;;8.29;60.26
72116;BME280;59991;52.140;5.428;2023-04-28T01:56:08;101305.84;;;8.28;60.40
72116;BME280;59991;52.140;5.428;2023-04-28T01:56:40;101304.72;;;8.29;59.92
72116;BME280;59991;52.140;5.428;2023-04-28T01:57:12;101304.72;;;8.29;60.05
72116;BME280;59991;52.140;5.428;2023-04-28T01:57:43;101294.19;;;8.27;59.79
72116;BME280;59991;52.140;5.428;2023-04-28T01:58:15;101298.50;;;8.28;60.34
72116;BME280;59991;52.140;5.428;2023-04-28T01:58:46;101307.44;;;8.29;60.02
72116;BME280;59991;52.140;5.428;2023-04-28T01:59:18;101303.91;;;8.28;60.23
72116;BME280;59991;52.140;5.428;2023-04-28T01:59:51;101310.16;;;8.29;59.92
72116;BME280;59991;52.140;5.428;2023-04-28T02:00:24;101310.94;;;8.29;60.22
72116;BME280;59991;52.140;5.428;2023-04-28T02:00:55;101313.66;;;8.29;59.66
72116;BME280;59991;52.140;5.428;2023-04-28T02:01:27;101317.50;;;8.28;59.42
72116;BME280;59991;52.140;5.428;2023-04-28T02:01:58;101309.34;;;8.28;59.85
72116;BME280;59991;52.140;5.428;2023-04-28T02:02:30;101312.06;;;8.28;59.50
72116;BME280;59991;52.140;5.428;2023-04-28T02:03:01;101306.63;;;8.28;59.51
72116;BME280;59991;52.140;5.428;2023-04-28T02:03:33;101310.16;;;8.29;60.07
72116;BME280;59991;52.140;5.428;2023-04-28T02:04:05;101313.66;;;8.29;59.40
72116;BME280;59991;52.140;5.428;2023-04-28T02:04:38;101308.22;;;8.29;59.75
72116;BME280;59991;52.140;5.428;2023-04-28T02:05:10;101307.44;;;8.29;59.78
72116;BME280;59991;52.140;5.428;2023-04-28T02:05:42;101303.13;;;8.28;59.70
72116;BME280;59991;52.140;5.428;2023-04-28T02:06:13;101312.06;;;8.28;59.76
72116;BME280;59991;52.140;5.428;2023-04-28T02:06:45;101299.28;;;8.29;59.94
72116;BME280;59991;52.140;5.428;2023-04-28T02:07:16;101304.38;;;8.30;59.95
72116;BME280;59991;52.140;5.428;2023-04-28T02:07:48;101304.38;;;8.30;59.95
72116;BME280;59991;52.140;5.428;2023-04-28T02:08:20;101304.03;;;8.32;59.95
72116;BME280;59991;52.140;5.428;2023-04-28T02:08:52;101296.69;;;8.32;59.96
72116;BME280;59991;52.140;5.428;2023-04-28T02:09:23;101299.41;;;8.32;59.89
72116;BME280;59991;52.140;5.428;2023-04-28T02:09:55;101299.41;;;8.32;59.79
72116;BME280;59991;52.140;5.428;2023-04-28T02:10:26;101305.16;;;8.31;59.63
72116;BME280;59991;52.140;5.428;2023-04-28T02:10:57;101304.03;;;8.32;59.55
72116;BME280;59991;52.140;5.428;2023-04-28T02:11:29;101303.22;;;8.31;59.65
72116;BME280;59991;52.140;5.428;2023-04-28T02:12:01;101298.94;;;8.30;59.46
72116;BME280;59991;52.140;5.428;2023-04-28T02:12:32;101298.94;;;8.30;60.22
72116;BME280;59991;52.140;5.428;2023-04-28T02:13:04;101295.41;;;8.30;59.89
72116;BME280;59991;52.140;5.428;2023-04-28T02:13:37;101300.50;;;8.31;60.27
72116;BME280;59991;52.140;5.428;2023-04-28T02:14:08;101301.31;;;8.32;59.52
72116;BME280;59991;52.140;5.428;2023-04-28T02:14:40;101307.09;;;8.30;59.97
72116;BME280;59991;52.140;5.428;2023-04-28T02:15:11;101301.31;;;8.32;59.95
72116;BME280;59991;52.140;5.428;2023-04-28T02:15:43;101300.97;;;8.34;59.81
72116;BME280;59991;52.140;5.428;2023-04-28T02:16:15;101297.13;;;8.35;60.30
72116;BME280;59991;52.140;5.428;2023-04-28T02:16:46;101301.44;;;8.36;59.65
72116;BME280;59991;52.140;5.428;2023-04-28T02:17:18;101296.78;;;8.36;59.83
72116;BME280;59991;52.140;5.428;2023-04-28T02:17:49;101294.84;;;8.37;60.06
72116;BME280;59991;52.140;5.428;2023-04-28T02:18:21;101293.72;;;8.38;59.94
72116;BME280;59991;52.140;5.428;2023-04-28T02:18:52;101303.78;;;8.37;60.54
72116;BME280;59991;52.140;5.428;2023-04-28T02:19:24;101294.84;;;8.37;60.19
72116;BME280;59991;52.140;5.428;2023-04-28T02:19:55;101294.84;;;8.37;59.84
72116;BME280;59991;52.140;5.428;2023-04-28T02:20:27;101292.94;;;8.37;59.88
72116;BME280;59991;52.140;5.428;2023-04-28T02:21:07;101293.28;;;8.36;60.35
72116;BME280;59991;52.140;5.428;2023-04-28T02:21:40;101289.75;;;8.35;60.26
72116;BME280;59991;52.140;5.428;2023-04-28T02:22:12;101290.56;;;8.36;60.34
72116;BME280;59991;52.140;5.428;2023-04-28T02:22:43;101291.69;;;8.35;59.51
72116;BME280;59991;52.140;5.428;2023-04-28T02:23:15;101283.53;;;8.35;60.12
72116;BME280;59991;52.140;5.428;2023-04-28T02:23:46;101289.41;;;8.37;59.81
72116;BME280;59991;52.140;5.428;2023-04-28T02:24:18;101283.97;;;8.37;60.54
72116;BME280;59991;52.140;5.428;2023-04-28T02:24:52;101289.41;;;8.37;60.75
72116;BME280;59991;52.140;5.428;2023-04-28T02:25:23;101280.91;;;8.38;60.53
72116;BME280;59991;52.140;5.428;2023-04-28T02:26:04;101285.22;;;8.39;60.51
72116;BME280;59991;52.140;5.428;2023-04-28T02:26:36;101284.44;;;8.39;59.68
72116;BME280;59991;52.140;5.428;2023-04-28T02:27:07;101282.84;;;8.38;60.34
72116;BME280;59991;52.140;5.428;2023-04-28T02:27:39;101279.69;;;8.36;60.09
72116;BME280;59991;52.140;5.428;2023-04-28T02:28:11;101281.25;;;8.37;59.62
72116;BME280;59991;52.140;5.428;2023-04-28T02:28:43;101274.25;;;8.36;60.30
72116;BME280;59991;52.140;5.428;2023-04-28T02:29:14;101278.09;;;8.35;60.35
72116;BME280;59991;52.140;5.428;2023-04-28T02:29:46;101272.66;;;8.35;60.28
72116;BME280;59991;52.140;5.428;2023-04-28T02:30:17;101278.09;;;8.35;60.58
72116;BME280;59991;52.140;5.428;2023-04-28T02:30:49;101269.97;;;8.35;60.23
72116;BME280;59991;52.140;5.428;2023-04-28T02:31:20;101267.25;;;8.35;60.66
72116;BME280;59991;52.140;5.428;2023-04-28T02:31:52;101268.81;;;8.36;60.07
72116;BME280;59991;52.140;5.428;2023-04-28T02:32:24;101273.13;;;8.37;60.19
72116;BME280;59991;52.140;5.428;2023-04-28T02:32:56;101271.97;;;8.38;60.11
72116;BME280;59991;52.140;5.428;2023-04-28T02:33:28;101266.53;;;8.38;60.66
72116;BME280;59991;52.140;5.428;2023-04-28T02:33:59;101270.06;;;8.38;60.44
72116;BME280;59991;52.140;5.428;2023-04-28T02:34:31;101267.78;;;8.40;60.91
72116;BME280;59991;52.140;5.428;2023-04-28T02:35:03;101258.81;;;8.40;61.09
72116;BME280;59991;52.140;5.428;2023-04-28T02:35:35;101262.34;;;8.40;60.97
72116;BME280;59991;52.140;5.428;2023-04-28T02:36:07;101271.63;;;8.39;59.84
72116;BME280;59991;52.140;5.428;2023-04-28T02:36:39;101263.03;;;8.37;60.10
72116;BME280;59991;52.140;5.428;2023-04-28T02:37:12;101258.03;;;8.39;59.66
72116;BME280;59991;52.140;5.428;2023-04-28T02:37:43;101264.25;;;8.40;60.09
72116;BME280;59991;52.140;5.428;2023-04-28T02:38:15;101261.53;;;8.40;60.01
72116;BME280;59991;52.140;5.428;2023-04-28T02:38:46;101259.97;;;8.39;60.60
72116;BME280;59991;52.140;5.428;2023-04-28T02:39:18;101261.09;;;8.38;60.34
72116;BME280;59991;52.140;5.428;2023-04-28T02:39:52;101265.75;;;8.37;60.25
72116;BME280;59991;52.140;5.428;2023-04-28T02:40:23;101261.09;;;8.38;59.74
72116;BME280;59991;52.140;5.428;2023-04-28T02:41:04;101261.91;;;8.38;59.71
72116;BME280;59991;52.140;5.428;2023-04-28T02:41:36;101269.25;;;8.38;60.07
72116;BME280;59991;52.140;5.428;2023-04-28T02:42:08;101261.81;;;8.35;59.81
72116;BME280;59991;52.140;5.428;2023-04-28T02:42:39;101263.28;;;8.32;59.58
72116;BME280;59991;52.140;5.428;2023-04-28T02:43:11;101265.19;;;8.31;59.39
72116;BME280;59991;52.140;5.428;2023-04-28T02:43:42;101263.16;;;8.28;59.84
72116;BME280;59991;52.140;5.428;2023-04-28T02:44:14;101260.81;;;8.27;59.62
72116;BME280;59991;52.140;5.428;2023-04-28T02:44:46;101253.03;;;8.25;59.92
72116;BME280;59991;52.140;5.428;2023-04-28T02:45:17;101258.47;;;8.25;60.48
72116;BME280;59991;52.140;5.428;2023-04-28T02:45:49;101257.66;;;8.25;60.34
72116;BME280;59991;52.140;5.428;2023-04-28T02:46:20;101257.66;;;8.25;60.21
72116;BME280;59991;52.140;5.428;2023-04-28T02:46:52;101261.53;;;8.24;59.83
72116;BME280;59991;52.140;5.428;2023-04-28T02:47:25;101259.25;;;8.26;60.18
72116;BME280;59991;52.140;5.428;2023-04-28T02:47:57;101257.31;;;8.26;60.56
72116;BME280;59991;52.140;5.428;2023-04-28T02:48:29;101253.44;;;8.27;60.33
72116;BME280;59991;52.140;5.428;2023-04-28T02:49:03;101254.59;;;8.26;60.39
72116;BME280;59991;52.140;5.428;2023-04-28T02:49:35;101251.88;;;8.26;60.33